createdAt,value
2023-05-24T00:01:50.822Z,2.83
2023-05-24T00:04:57.783Z,2.40
2023-05-24T00:08:00.265Z,2.72
2023-05-24T00:11:03.622Z,3.23
2023-05-24T00:14:06.107Z,2.70
2023-05-24T00:17:09.568Z,2.47
2023-05-24T00:23:16.796Z,2.85
2023-05-24T00:26:18.690Z,3.33
2023-05-24T00:29:21.400Z,2.97
2023-05-24T00:32:25.407Z,2.83
2023-05-24T00:35:28.830Z,2.67
2023-05-24T00:41:32.532Z,3.03
2023-05-24T00:44:34.301Z,2.80
2023-05-24T00:47:37.247Z,2.53
2023-05-24T00:50:40.514Z,3.08
2023-05-24T00:56:49.706Z,3.13
2023-05-24T00:59:57.268Z,2.45
2023-05-24T01:03:01.288Z,3.30
2023-05-24T01:06:07.366Z,2.85
2023-05-24T01:09:14.640Z,2.63
2023-05-24T01:12:43.153Z,3.22
2023-05-24T01:15:53.968Z,2.83
2023-05-24T01:18:59.884Z,2.70
2023-05-24T01:22:14.186Z,2.80
2023-05-24T01:25:40.491Z,2.67
2023-05-24T01:28:44.362Z,2.90
2023-05-24T01:31:46.376Z,2.90
2023-05-24T01:34:49.654Z,2.58
2023-05-24T01:37:53.117Z,3.65
2023-05-24T01:44:13.412Z,3.15
2023-05-24T01:47:21.128Z,2.78
2023-05-24T01:50:32.111Z,3.00
2023-05-24T01:53:35.991Z,3.22
2023-05-24T01:56:39.317Z,2.85
2023-05-24T01:59:43.400Z,2.97
2023-05-24T02:02:45.920Z,2.97
2023-05-24T02:05:48.554Z,3.25
2023-05-24T02:08:50.485Z,3.23
2023-05-24T02:11:52.276Z,2.60
2023-05-24T02:14:55.419Z,2.85
2023-05-24T02:17:59.067Z,3.08
2023-05-24T02:21:07.073Z,3.35
2023-05-24T02:24:11.526Z,3.42
2023-05-24T02:27:16.786Z,2.80
2023-05-24T02:30:19.111Z,2.75
2023-05-24T02:33:22.256Z,2.88
2023-05-24T02:36:24.614Z,2.60
2023-05-24T02:39:27.412Z,2.55
2023-05-24T02:42:29.178Z,3.13
2023-05-24T02:45:32.653Z,3.53
2023-05-24T02:48:34.616Z,3.22
2023-05-24T02:51:37.114Z,3.08
2023-05-24T02:54:38.956Z,3.03
2023-05-24T02:57:41.708Z,3.03
2023-05-24T03:00:44.122Z,3.15
2023-05-24T03:03:46.937Z,3.60
2023-05-24T03:06:48.968Z,4.35
2023-05-24T03:09:50.914Z,3.75
2023-05-24T03:12:52.967Z,3.10
2023-05-24T03:15:55.672Z,3.17
2023-05-24T03:18:58.884Z,3.92
2023-05-24T03:22:00.877Z,2.47
2023-05-24T03:25:02.687Z,3.10
2023-05-24T03:28:11.734Z,3.40
2023-05-24T03:31:14.399Z,3.25
2023-05-24T03:34:17.960Z,3.53
2023-05-24T03:37:19.828Z,3.40
2023-05-24T03:40:21.897Z,3.03
2023-05-24T03:43:23.769Z,3.28
2023-05-24T03:46:30.635Z,3.75
2023-05-24T03:49:32.464Z,2.75
2023-05-24T03:52:34.735Z,3.70
2023-05-24T03:55:36.690Z,3.42
2023-05-24T03:58:43.416Z,2.90
2023-05-24T04:01:45.279Z,3.72
2023-05-24T04:04:53.665Z,3.55
2023-05-24T04:07:56.201Z,3.60
2023-05-24T04:10:58.651Z,3.00
2023-05-24T04:14:00.747Z,3.35
2023-05-24T04:17:07.262Z,3.22
2023-05-24T04:20:10.036Z,3.58
2023-05-24T04:23:12.901Z,3.15
2023-05-24T04:26:15.759Z,4.18
2023-05-24T04:29:19.010Z,3.33
2023-05-24T04:32:20.802Z,4.20
2023-05-24T04:35:27.130Z,3.58
2023-05-24T04:38:32.541Z,4.15
2023-05-24T04:41:36.031Z,3.78
2023-05-24T04:44:44.018Z,3.60
2023-05-24T04:47:45.926Z,3.38
2023-05-24T04:50:48.005Z,3.50
2023-05-24T04:53:50.738Z,3.90
2023-05-24T04:56:52.628Z,4.13
2023-05-24T04:59:55.319Z,3.83
2023-05-24T05:02:57.389Z,3.72
2023-05-24T05:05:59.849Z,4.00
2023-05-24T05:09:01.908Z,4.30
2023-05-24T05:12:03.921Z,3.95
2023-05-24T05:15:06.530Z,4.00
2023-05-24T05:18:09.282Z,4.00
2023-05-24T05:21:11.790Z,3.97
2023-05-24T05:24:16.394Z,4.37
2023-05-24T05:27:19.000Z,4.43
2023-05-24T05:30:20.989Z,4.03
2023-05-24T05:33:25.295Z,4.22
2023-05-24T05:36:27.477Z,4.32
2023-05-24T05:39:31.760Z,4.13
2023-05-24T05:42:34.533Z,3.70
2023-05-24T05:45:36.341Z,3.75
2023-05-24T05:48:45.036Z,4.88
2023-05-24T05:51:48.324Z,3.65
2023-05-24T05:54:50.868Z,4.18
2023-05-24T05:57:52.659Z,4.20
2023-05-24T06:00:54.836Z,4.10
2023-05-24T06:03:56.714Z,4.88
2023-05-24T06:06:59.537Z,4.18
2023-05-24T06:10:01.343Z,4.20
2023-05-24T06:13:09.430Z,4.10
2023-05-24T06:16:11.538Z,4.10
2023-05-24T06:19:18.507Z,4.65
2023-05-24T06:22:21.666Z,4.50
2023-05-24T06:25:24.607Z,3.95
2023-05-24T06:28:26.550Z,3.75
2023-05-24T06:31:28.646Z,4.22
2023-05-24T06:34:30.749Z,4.30
2023-05-24T06:37:35.187Z,4.20
2023-05-24T06:40:37.002Z,4.53
2023-05-24T06:43:38.828Z,4.60
2023-05-24T06:46:41.162Z,4.43
2023-05-24T06:49:43.101Z,4.55
2023-05-24T06:52:45.078Z,4.93
2023-05-24T06:55:47.775Z,5.55
2023-05-24T06:58:49.556Z,4.57
2023-05-24T07:01:57.872Z,3.80
2023-05-24T07:05:00.687Z,3.75
2023-05-24T07:08:02.895Z,3.25
2023-05-24T07:11:04.735Z,3.45
2023-05-24T07:14:09.769Z,3.80
2023-05-24T07:17:11.667Z,4.22
2023-05-24T07:20:13.926Z,4.10
2023-05-24T07:23:15.815Z,3.97
2023-05-24T07:26:18.096Z,3.72
2023-05-24T07:29:21.928Z,4.07
2023-05-24T07:32:23.992Z,3.53
2023-05-24T07:35:26.175Z,3.88
2023-05-24T07:38:29.299Z,3.22
2023-05-24T07:41:31.503Z,3.47
2023-05-24T07:44:34.456Z,3.70
2023-05-24T07:47:37.329Z,3.45
2023-05-24T07:50:45.622Z,3.67
2023-05-24T07:53:47.361Z,4.07
2023-05-24T07:56:51.819Z,3.70
2023-05-24T07:59:53.921Z,3.90
2023-05-24T08:02:56.613Z,3.40
2023-05-24T08:05:58.677Z,3.80
2023-05-24T08:09:00.835Z,3.55
2023-05-24T08:12:03.888Z,3.30
2023-05-24T08:15:06.855Z,3.60
2023-05-24T08:18:09.569Z,3.30
2023-05-24T08:21:11.668Z,4.05
2023-05-24T08:24:13.571Z,3.05
2023-05-24T08:27:20.010Z,3.15
2023-05-24T08:30:21.843Z,3.22
2023-05-24T08:33:24.500Z,3.50
2023-05-24T08:36:26.816Z,4.40
2023-05-24T08:39:30.361Z,3.80
2023-05-24T08:42:32.648Z,4.28
2023-05-24T08:45:37.708Z,3.67
2023-05-24T08:48:46.141Z,4.38
2023-05-24T08:51:50.194Z,4.10
2023-05-24T08:54:53.273Z,3.40
2023-05-24T08:57:57.244Z,4.00
2023-05-24T09:01:00.087Z,3.75
2023-05-24T09:04:05.352Z,4.97
2023-05-24T09:07:08.750Z,2.83
2023-05-24T09:10:13.236Z,3.25
2023-05-24T09:13:17.198Z,3.55
2023-05-24T09:16:20.229Z,3.10
2023-05-24T09:19:22.234Z,3.60
2023-05-24T09:22:26.915Z,3.22
2023-05-24T09:25:32.365Z,3.40
2023-05-24T09:28:35.811Z,3.72
2023-05-24T09:34:44.619Z,4.10
2023-05-24T09:37:47.244Z,3.72
2023-05-24T09:41:08.602Z,3.13
2023-05-24T09:44:14.941Z,3.95
2023-05-24T09:47:25.371Z,3.75
2023-05-24T09:50:27.563Z,3.78
2023-05-24T09:53:30.845Z,3.42
2023-05-24T09:56:36.099Z,3.22
2023-05-24T09:59:41.682Z,4.13
2023-05-24T10:02:52.800Z,4.40
2023-05-24T10:05:56.760Z,4.00
2023-05-24T10:08:59.187Z,4.28
2023-05-24T10:12:07.026Z,4.23
2023-05-24T10:15:11.010Z,4.07
2023-05-24T10:18:14.453Z,4.32
2023-05-24T10:21:20.224Z,3.92
2023-05-24T10:24:27.958Z,3.75
2023-05-24T10:27:33.316Z,4.32
2023-05-24T10:30:48.094Z,4.25
2023-05-24T10:34:01.403Z,4.20
2023-05-24T10:37:14.346Z,4.40
2023-05-24T10:40:22.274Z,4.22
2023-05-24T10:43:25.862Z,3.90
2023-05-24T10:46:28.415Z,4.38
2023-05-24T10:49:31.363Z,4.17
2023-05-24T10:52:37.080Z,4.38
2023-05-24T10:55:59.811Z,4.65
2023-05-24T10:59:06.242Z,3.88
2023-05-24T11:02:16.274Z,4.88
2023-05-24T11:05:18.685Z,4.43
2023-05-24T11:08:33.576Z,4.30
2023-05-24T11:11:38.288Z,4.10
2023-05-24T11:14:40.736Z,4.28
2023-05-24T11:18:14.067Z,4.32
2023-05-24T11:21:16.143Z,4.03
2023-05-24T11:24:19.158Z,3.92
2023-05-24T11:27:21.736Z,3.85
2023-05-24T11:30:24.247Z,4.40
2023-05-24T11:33:33.355Z,4.60
2023-05-24T11:36:36.574Z,4.55
2023-05-24T11:39:38.543Z,3.83
2023-05-24T11:42:41.147Z,4.18
2023-05-24T11:45:44.762Z,4.07
2023-05-24T11:48:57.559Z,4.85
2023-05-24T11:52:04.537Z,4.73
2023-05-24T11:55:07.992Z,4.13
2023-05-24T12:01:27.548Z,4.38
2023-05-24T12:04:32.727Z,3.42
2023-05-24T12:07:34.748Z,3.78
2023-05-24T12:10:37.855Z,4.90
2023-05-24T12:13:40.478Z,4.57
2023-05-24T12:16:43.526Z,4.40
2023-05-24T12:19:48.770Z,4.60
2023-05-24T12:23:00.584Z,4.47
2023-05-24T12:26:03.439Z,4.20
2023-05-24T12:29:05.374Z,4.82
2023-05-24T12:32:13.616Z,4.93
2023-05-24T12:35:19.910Z,4.25
2023-05-24T12:38:25.608Z,4.15
2023-05-24T12:41:30.764Z,4.50
2023-05-24T12:44:37.191Z,4.10
2023-05-24T12:47:39.201Z,4.95
2023-05-24T12:50:41.265Z,4.22
2023-05-24T12:53:43.489Z,4.18
2023-05-24T12:56:45.633Z,4.40
2023-05-24T12:59:52.955Z,4.50
2023-05-24T13:02:58.387Z,4.72
2023-05-24T13:06:00.555Z,4.18
2023-05-24T13:09:02.539Z,4.75
2023-05-24T13:12:06.205Z,4.38
2023-05-24T13:15:09.040Z,4.30
2023-05-24T13:18:10.888Z,4.53
2023-05-24T13:21:12.822Z,4.45
2023-05-24T13:24:18.358Z,4.03
2023-05-24T13:27:20.429Z,4.50
2023-05-24T13:30:27.666Z,4.05
2023-05-24T13:33:34.141Z,4.25
2023-05-24T13:36:41.141Z,4.30
2023-05-24T13:39:43.826Z,3.90
2023-05-24T13:42:45.763Z,4.43
2023-05-24T13:45:47.836Z,4.18
2023-05-24T13:48:55.108Z,4.13
2023-05-24T13:51:58.557Z,3.88
2023-05-24T13:55:03.143Z,4.25
2023-05-24T13:58:05.166Z,5.28
2023-05-24T14:01:08.663Z,4.28
2023-05-24T14:07:15.629Z,4.68
2023-05-24T14:10:19.292Z,4.50
2023-05-24T14:14:20.361Z,4.38
2023-05-24T14:19:55.931Z,4.97
2023-05-24T14:22:58.584Z,4.70
2023-05-24T14:26:05.282Z,5.00
2023-05-24T14:29:07.397Z,5.13
2023-05-24T14:32:16.085Z,5.35
2023-05-24T14:35:20.301Z,5.35
2023-05-24T14:38:24.066Z,5.20
2023-05-24T14:41:26.361Z,5.30
2023-05-24T14:44:28.565Z,4.80
2023-05-24T14:47:30.964Z,4.82
2023-05-24T14:50:33.038Z,5.97
2023-05-24T14:53:34.844Z,4.47
2023-05-24T14:56:36.922Z,5.03
2023-05-24T14:59:38.995Z,4.40
2023-05-24T15:02:41.016Z,5.20
2023-05-24T15:08:56.305Z,4.68
2023-05-24T15:11:58.688Z,4.25
2023-05-24T15:15:00.696Z,4.22
2023-05-24T15:18:02.715Z,4.82
2023-05-24T15:21:04.624Z,4.75
2023-05-24T15:24:06.751Z,4.10
2023-05-24T15:27:10.221Z,3.58
2023-05-24T15:33:14.715Z,4.35
2023-05-24T15:36:17.305Z,4.13
2023-05-24T15:39:21.327Z,4.40
2023-05-24T15:42:24.838Z,6.07
2023-05-24T15:48:28.753Z,4.57
2023-05-24T15:54:36.448Z,3.92
2023-05-24T15:57:38.700Z,4.40
2023-05-24T16:00:41.522Z,4.13
2023-05-24T16:03:43.818Z,4.18
2023-05-24T16:06:47.217Z,3.78
2023-05-24T16:09:50.962Z,4.78
2023-05-24T16:12:53.703Z,5.07
2023-05-24T16:15:55.606Z,3.93
2023-05-24T16:18:59.162Z,4.65
2023-05-24T16:22:01.026Z,4.70
2023-05-24T16:25:03.099Z,4.38
2023-05-24T16:28:04.950Z,4.20
2023-05-24T16:31:06.840Z,3.95
2023-05-24T16:34:08.907Z,4.90
2023-05-24T16:37:11.046Z,5.00
2023-05-24T16:40:13.254Z,3.90
2023-05-24T16:43:16.338Z,3.58
2023-05-24T16:46:19.161Z,4.60
2023-05-24T16:49:21.104Z,3.88
2023-05-24T16:52:23.094Z,4.25
2023-05-24T16:55:25.069Z,4.50
2023-05-24T16:58:28.175Z,4.40
2023-05-24T17:01:30.184Z,4.65
2023-05-24T17:04:38.246Z,5.30
2023-05-24T17:07:40.794Z,5.00
2023-05-24T17:10:44.054Z,4.77
2023-05-24T17:16:48.612Z,5.05
2023-05-24T17:19:50.736Z,5.18
2023-05-24T17:22:52.761Z,4.57
2023-05-24T17:25:58.176Z,5.85
2023-05-24T17:29:01.565Z,4.50
2023-05-24T17:32:03.620Z,8.18
2023-05-24T17:35:09.137Z,5.20
2023-05-24T17:38:11.183Z,4.88
2023-05-24T17:41:13.164Z,5.07
2023-05-24T17:44:15.054Z,4.25
2023-05-24T17:47:17.061Z,5.05
2023-05-24T17:50:18.883Z,4.80
2023-05-24T17:53:30.865Z,4.60
2023-05-24T17:56:33.923Z,4.78
2023-05-24T17:59:36.006Z,4.10
2023-05-24T18:02:37.874Z,4.45
2023-05-24T18:05:40.359Z,3.88
2023-05-24T18:08:43.849Z,5.03
2023-05-24T18:11:45.934Z,4.50
2023-05-24T18:14:48.644Z,4.25
2023-05-24T18:17:50.673Z,4.57
2023-05-24T18:20:52.941Z,4.03
2023-05-24T18:23:54.966Z,4.35
2023-05-24T18:26:56.938Z,4.50
2023-05-24T18:30:01.055Z,3.63
2023-05-24T18:33:07.462Z,4.35
2023-05-24T18:36:11.477Z,3.75
2023-05-24T18:39:13.471Z,3.90
2023-05-24T18:42:20.616Z,3.97
2023-05-24T18:45:22.913Z,3.70
2023-05-24T18:48:24.863Z,4.68
2023-05-24T18:51:27.031Z,3.97
2023-05-24T18:54:31.450Z,3.78
2023-05-24T18:57:33.740Z,3.90
2023-05-24T19:00:35.605Z,3.95
2023-05-24T19:03:39.247Z,4.13
2023-05-24T19:06:41.944Z,4.15
2023-05-24T19:09:45.884Z,4.40
2023-05-24T19:12:50.144Z,4.18
2023-05-24T19:15:53.666Z,3.80
2023-05-24T19:18:56.195Z,3.53
2023-05-24T19:21:58.164Z,4.00
2023-05-24T19:25:00.077Z,4.40
2023-05-24T19:28:01.988Z,4.53
2023-05-24T19:31:05.207Z,3.95
2023-05-24T19:34:07.209Z,4.70
2023-05-24T19:37:09.753Z,4.60
2023-05-24T19:40:11.916Z,4.03
2023-05-24T19:43:14.556Z,4.00
2023-05-24T19:46:16.432Z,4.90
2023-05-24T19:49:18.307Z,4.55
2023-05-24T19:52:21.294Z,4.90
2023-05-24T19:55:26.563Z,4.57
2023-05-24T19:58:29.767Z,4.18
2023-05-24T20:01:31.763Z,4.40
2023-05-24T20:04:33.748Z,4.18
2023-05-24T20:07:36.950Z,4.60
2023-05-24T20:10:41.595Z,4.15
2023-05-24T20:13:52.669Z,3.80
2023-05-24T20:16:54.589Z,4.20
2023-05-24T20:20:01.798Z,4.53
2023-05-24T20:23:03.626Z,3.90
2023-05-24T20:26:06.743Z,3.70
2023-05-24T20:29:08.806Z,4.45
2023-05-24T20:32:13.939Z,4.35
2023-05-24T20:35:15.861Z,3.80
2023-05-24T20:38:19.043Z,4.00
2023-05-24T20:41:20.944Z,4.63
2023-05-24T20:44:22.773Z,4.60
2023-05-24T20:47:24.843Z,4.05
2023-05-24T20:50:27.096Z,4.40
2023-05-24T20:53:29.159Z,4.40
2023-05-24T20:56:35.900Z,4.88
2023-05-24T20:59:37.837Z,4.32
2023-05-24T21:02:40.480Z,4.15
2023-05-24T21:05:42.712Z,4.18
2023-05-24T21:08:51.925Z,4.38
2023-05-24T21:11:54.082Z,4.30
2023-05-24T21:15:00.690Z,4.80
2023-05-24T21:18:03.751Z,4.65
2023-05-24T21:21:10.096Z,4.60
2023-05-24T21:24:12.159Z,4.63
2023-05-24T21:27:20.400Z,4.30
2023-05-24T21:30:22.362Z,4.70
2023-05-24T21:33:25.052Z,5.13
2023-05-24T21:36:26.994Z,5.03
2023-05-24T21:39:29.007Z,8.07
2023-05-24T21:42:30.937Z,8.10
2023-05-24T21:45:37.408Z,6.70
2023-05-24T21:48:39.275Z,5.80
2023-05-24T21:51:44.335Z,7.30
2023-05-24T21:54:46.101Z,5.43
2023-05-24T21:57:48.798Z,5.15
2023-05-24T22:00:51.590Z,5.28
2023-05-24T22:03:53.624Z,5.65
2023-05-24T22:06:55.952Z,4.32
2023-05-24T22:09:59.240Z,5.07
2023-05-24T22:13:01.382Z,4.07
2023-05-24T22:16:03.417Z,4.22
2023-05-24T22:19:15.153Z,4.53
2023-05-24T22:22:20.426Z,5.03
2023-05-24T22:28:27.127Z,4.65
2023-05-24T22:31:29.562Z,4.60
2023-05-24T22:34:32.405Z,4.20
2023-05-24T22:37:36.526Z,4.18
2023-05-24T22:40:41.782Z,4.18
2023-05-24T22:43:44.547Z,4.53
2023-05-24T22:46:49.884Z,4.18
2023-05-24T22:49:53.961Z,4.57
2023-05-24T22:52:56.846Z,4.22
2023-05-24T22:55:58.709Z,5.05
2023-05-24T22:59:00.730Z,3.80
2023-05-24T23:02:02.654Z,4.72
2023-05-24T23:05:06.220Z,4.43
2023-05-24T23:08:13.403Z,4.95
2023-05-24T23:11:17.443Z,4.85
2023-05-24T23:14:19.346Z,5.30
2023-05-24T23:17:22.358Z,4.90
2023-05-24T23:20:24.641Z,4.88
2023-05-24T23:23:28.127Z,4.45
2023-05-24T23:29:32.861Z,5.35
2023-05-24T23:32:34.741Z,6.47
2023-05-24T23:35:36.690Z,5.72
2023-05-24T23:38:38.765Z,5.70
2023-05-24T23:41:40.859Z,5.20
2023-05-24T23:44:42.815Z,4.80
2023-05-24T23:47:50.325Z,5.65
2023-05-24T23:50:54.610Z,7.90
2023-05-24T23:53:58.386Z,9.85
